createdAt,value
2024-01-24T00:00:48.033Z,23.77
2024-01-24T00:01:48.101Z,23.76
2024-01-24T00:02:50.415Z,23.76
2024-01-24T00:03:48.432Z,23.77
2024-01-24T00:04:48.360Z,23.77
2024-01-24T00:05:48.381Z,23.77
2024-01-24T00:06:49.053Z,23.76
2024-01-24T00:07:48.524Z,23.77
2024-01-24T00:08:48.554Z,23.76
2024-01-24T00:09:48.686Z,23.76
2024-01-24T00:10:49.041Z,23.73
2024-01-24T00:11:48.825Z,23.74
2024-01-24T00:12:48.977Z,23.76
2024-01-24T00:13:48.939Z,23.74
2024-01-24T00:14:48.993Z,23.74
2024-01-24T00:15:49.197Z,23.76
2024-01-24T00:16:49.117Z,23.76
2024-01-24T00:17:49.564Z,23.76
2024-01-24T00:18:49.399Z,23.76
2024-01-24T00:19:49.351Z,23.76
2024-01-24T00:20:49.396Z,23.77
2024-01-24T00:21:49.540Z,23.80
2024-01-24T00:22:49.615Z,23.77
2024-01-24T00:23:49.585Z,23.79
2024-01-24T00:24:49.698Z,23.80
2024-01-24T00:25:49.741Z,23.80
2024-01-24T00:26:49.770Z,23.83
2024-01-24T00:27:49.924Z,23.80
2024-01-24T00:28:49.925Z,23.83
2024-01-24T00:29:49.976Z,23.83
2024-01-24T00:30:50.026Z,23.83
2024-01-24T00:31:50.053Z,23.84
2024-01-24T00:32:50.151Z,23.88
2024-01-24T00:33:50.229Z,23.86
2024-01-24T00:34:50.256Z,23.88
2024-01-24T00:35:50.288Z,23.87
2024-01-24T00:36:50.432Z,23.88
2024-01-24T00:37:50.403Z,23.91
2024-01-24T00:38:50.443Z,23.90
2024-01-24T00:39:50.883Z,23.94
2024-01-24T00:40:50.549Z,23.94
2024-01-24T00:41:50.601Z,23.94
2024-01-24T00:42:50.674Z,23.94
2024-01-24T00:43:50.673Z,23.97
2024-01-24T00:44:50.717Z,23.96
2024-01-24T00:45:50.969Z,23.99
2024-01-24T00:46:50.834Z,24.01
2024-01-24T00:47:50.881Z,23.99
2024-01-24T00:48:51.002Z,24.00
2024-01-24T00:49:50.948Z,24.00
2024-01-24T00:50:51.022Z,24.04
2024-01-24T00:51:51.089Z,24.03
2024-01-24T00:52:51.087Z,24.07
2024-01-24T00:53:51.144Z,24.04
2024-01-24T00:54:51.179Z,24.07
2024-01-24T00:55:51.202Z,24.08
2024-01-24T00:56:51.281Z,24.07
2024-01-24T00:57:51.331Z,24.07
2024-01-24T00:58:51.339Z,24.08
2024-01-24T00:59:51.364Z,24.08
2024-01-24T01:00:51.498Z,24.10
2024-01-24T01:01:51.498Z,24.07
2024-01-24T01:02:51.523Z,24.08
2024-01-24T01:03:51.609Z,24.10
2024-01-24T01:04:51.623Z,24.08
2024-01-24T01:05:51.631Z,24.11
2024-01-24T01:06:51.720Z,24.11
2024-01-24T01:07:51.761Z,24.13
2024-01-24T01:08:51.801Z,24.10
2024-01-24T01:09:51.881Z,24.11
2024-01-24T01:10:51.868Z,24.13
2024-01-24T01:11:51.925Z,24.13
2024-01-24T01:12:52.045Z,24.13
2024-01-24T01:13:52.003Z,24.13
2024-01-24T01:14:52.051Z,24.13
2024-01-24T01:15:52.137Z,24.13
2024-01-24T01:16:52.168Z,24.13
2024-01-24T01:17:52.230Z,24.13
2024-01-24T01:18:52.284Z,24.14
2024-01-24T01:19:52.253Z,24.13
2024-01-24T01:20:52.317Z,24.13
2024-01-24T01:21:52.452Z,24.13
2024-01-24T01:22:52.409Z,24.14
2024-01-24T01:23:52.473Z,24.15
2024-01-24T01:24:52.535Z,24.11
2024-01-24T01:25:52.640Z,24.14
2024-01-24T01:26:52.595Z,24.15
2024-01-24T01:27:52.759Z,24.15
2024-01-24T01:28:52.681Z,24.15
2024-01-24T01:29:52.712Z,24.17
2024-01-24T01:30:52.789Z,24.15
2024-01-24T01:31:52.827Z,24.15
2024-01-24T01:32:53.296Z,24.15
2024-01-24T01:33:53.059Z,24.18
2024-01-24T01:34:52.946Z,24.18
2024-01-24T01:35:57.918Z,24.17
2024-01-24T01:36:53.999Z,24.20
2024-01-24T01:37:53.042Z,24.18
2024-01-24T01:38:53.174Z,24.20
2024-01-24T01:39:53.248Z,24.18
2024-01-24T01:40:53.206Z,24.21
2024-01-24T01:41:53.050Z,24.20
2024-01-24T01:42:53.069Z,24.20
2024-01-24T01:43:53.153Z,24.18
2024-01-24T01:44:53.169Z,24.20
2024-01-24T01:45:53.208Z,24.21
2024-01-24T01:46:53.064Z,24.21
2024-01-24T01:47:53.127Z,24.20
2024-01-24T01:48:53.272Z,24.23
2024-01-24T01:49:53.080Z,24.18
2024-01-24T01:50:52.998Z,24.21
2024-01-24T01:51:53.066Z,24.20
2024-01-24T01:52:53.021Z,24.21
2024-01-24T01:53:53.016Z,24.20
2024-01-24T01:54:53.334Z,24.23
2024-01-24T01:55:53.060Z,24.25
2024-01-24T01:56:53.284Z,24.20
2024-01-24T01:57:53.343Z,24.23
2024-01-24T01:58:53.133Z,24.21
2024-01-24T01:59:53.209Z,24.23
2024-01-24T02:00:53.317Z,24.23
2024-01-24T02:01:53.195Z,24.23
2024-01-24T02:02:53.338Z,24.23
2024-01-24T02:03:53.399Z,24.23
2024-01-24T02:04:53.307Z,24.24
2024-01-24T02:05:53.363Z,24.23
2024-01-24T02:06:53.411Z,24.23
2024-01-24T02:07:53.531Z,24.24
2024-01-24T02:08:53.387Z,24.23
2024-01-24T02:09:53.556Z,24.24
2024-01-24T02:10:53.480Z,24.23
2024-01-24T02:11:53.506Z,24.24
2024-01-24T02:12:53.560Z,24.24
2024-01-24T02:13:53.539Z,24.24
2024-01-24T02:14:53.561Z,24.24
2024-01-24T02:15:53.660Z,24.25
2024-01-24T02:16:53.619Z,24.25
2024-01-24T02:17:53.672Z,24.25
2024-01-24T02:18:53.747Z,24.25
2024-01-24T02:19:53.742Z,24.23
2024-01-24T02:20:53.750Z,24.23
2024-01-24T02:21:53.772Z,24.24
2024-01-24T02:22:53.780Z,24.25
2024-01-24T02:23:53.801Z,24.27
2024-01-24T02:24:53.827Z,24.25
2024-01-24T02:25:53.845Z,24.25
2024-01-24T02:26:53.881Z,24.27
2024-01-24T02:27:53.966Z,24.24
2024-01-24T02:28:53.917Z,24.25
2024-01-24T02:29:53.980Z,24.27
2024-01-24T02:30:54.064Z,24.25
2024-01-24T02:31:54.037Z,24.27
2024-01-24T02:32:54.076Z,24.27
2024-01-24T02:33:54.128Z,24.27
2024-01-24T02:34:54.196Z,24.27
2024-01-24T02:35:54.090Z,24.28
2024-01-24T02:36:54.190Z,24.28
2024-01-24T02:37:54.163Z,24.28
2024-01-24T02:38:56.908Z,24.27
2024-01-24T02:39:54.294Z,24.28
2024-01-24T02:40:54.190Z,24.27
2024-01-24T02:41:54.230Z,24.27
2024-01-24T02:42:54.248Z,24.30
2024-01-24T02:43:54.195Z,24.28
2024-01-24T02:44:54.199Z,24.28
2024-01-24T02:45:54.305Z,24.30
2024-01-24T02:46:54.240Z,24.30
2024-01-24T02:47:54.305Z,24.31
2024-01-24T02:48:54.353Z,24.30
2024-01-24T02:49:54.241Z,24.28
2024-01-24T02:50:54.216Z,24.31
2024-01-24T02:51:54.269Z,24.30
2024-01-24T02:52:54.232Z,24.31
2024-01-24T02:53:54.259Z,24.28
2024-01-24T02:54:54.288Z,24.31
2024-01-24T02:55:54.247Z,24.28
2024-01-24T02:56:54.244Z,24.30
2024-01-24T02:57:54.379Z,24.31
2024-01-24T02:58:54.274Z,24.31
2024-01-24T02:59:54.270Z,24.32
2024-01-24T03:00:54.317Z,24.32
2024-01-24T03:01:54.246Z,24.31
2024-01-24T03:02:54.253Z,24.31
2024-01-24T03:03:54.286Z,24.30
2024-01-24T03:04:54.337Z,24.31
2024-01-24T03:05:54.337Z,24.31
2024-01-24T03:06:54.383Z,24.32
2024-01-24T03:07:54.286Z,24.30
2024-01-24T03:08:54.261Z,24.31
2024-01-24T03:09:54.306Z,24.35
2024-01-24T03:10:54.583Z,24.31
2024-01-24T03:11:54.257Z,24.34
2024-01-24T03:12:54.305Z,24.34
2024-01-24T03:13:54.283Z,24.32
2024-01-24T03:14:54.291Z,24.32
2024-01-24T03:15:54.372Z,24.34
2024-01-24T03:16:54.302Z,24.34
2024-01-24T03:17:54.345Z,24.32
2024-01-24T03:18:54.367Z,24.32
2024-01-24T03:19:54.315Z,24.32
2024-01-24T03:20:54.311Z,24.31
2024-01-24T03:21:54.400Z,24.32
2024-01-24T03:22:54.396Z,24.34
2024-01-24T03:23:54.399Z,24.34
2024-01-24T03:24:54.519Z,24.34
2024-01-24T03:25:54.440Z,24.35
2024-01-24T03:26:54.488Z,24.34
2024-01-24T03:27:54.538Z,24.32
2024-01-24T03:28:54.844Z,24.35
2024-01-24T03:29:54.589Z,24.32
2024-01-24T03:30:54.709Z,24.35
2024-01-24T03:31:54.712Z,24.35
2024-01-24T03:32:54.806Z,24.34
2024-01-24T03:33:55.122Z,24.32
2024-01-24T03:34:54.759Z,24.34
2024-01-24T03:35:54.753Z,24.32
2024-01-24T03:36:54.786Z,24.35
2024-01-24T03:37:54.837Z,24.36
2024-01-24T03:38:54.842Z,24.36
2024-01-24T03:39:54.922Z,24.35
2024-01-24T03:40:54.888Z,24.35
2024-01-24T03:41:54.968Z,24.35
2024-01-24T03:42:55.006Z,24.36
2024-01-24T03:43:55.051Z,24.34
2024-01-24T03:44:55.072Z,24.36
2024-01-24T03:45:55.069Z,24.34
2024-01-24T03:46:55.075Z,24.36
2024-01-24T03:47:55.160Z,24.38
2024-01-24T03:48:55.223Z,24.36
2024-01-24T03:49:55.236Z,24.35
2024-01-24T03:50:55.210Z,24.35
2024-01-24T03:51:55.253Z,24.35
2024-01-24T03:52:55.264Z,24.36
2024-01-24T03:53:55.260Z,24.35
2024-01-24T03:54:55.361Z,24.35
2024-01-24T03:55:55.362Z,24.38
2024-01-24T03:56:55.386Z,24.38
2024-01-24T03:57:55.415Z,24.38
2024-01-24T03:58:55.449Z,24.36
2024-01-24T03:59:55.491Z,24.36
2024-01-24T04:00:55.595Z,24.36
2024-01-24T04:01:55.520Z,24.36
2024-01-24T04:02:55.630Z,24.38
2024-01-24T04:03:55.646Z,24.39
2024-01-24T04:04:55.683Z,24.38
2024-01-24T04:05:55.696Z,24.38
2024-01-24T04:06:55.779Z,24.38
2024-01-24T04:07:55.708Z,24.38
2024-01-24T04:08:55.763Z,24.36
2024-01-24T04:09:56.137Z,24.39
2024-01-24T04:10:55.789Z,24.38
2024-01-24T04:11:55.845Z,24.38
2024-01-24T04:12:56.015Z,24.38
2024-01-24T04:13:55.893Z,24.38
2024-01-24T04:14:56.266Z,24.38
2024-01-24T04:15:56.018Z,24.39
2024-01-24T04:16:55.962Z,24.39
2024-01-24T04:17:56.082Z,24.36
2024-01-24T04:18:56.127Z,24.39
2024-01-24T04:19:56.109Z,24.41
2024-01-24T04:20:56.105Z,24.36
2024-01-24T04:21:56.268Z,24.38
2024-01-24T04:22:56.171Z,24.39
2024-01-24T04:23:56.559Z,24.39
2024-01-24T04:24:56.331Z,24.38
2024-01-24T04:25:56.261Z,24.39
2024-01-24T04:26:56.303Z,24.38
2024-01-24T04:27:56.363Z,24.39
2024-01-24T04:29:03.524Z,24.35
2024-01-24T04:30:03.539Z,24.35
2024-01-24T04:31:10.762Z,24.32
2024-01-24T04:32:10.766Z,24.34
2024-01-24T04:33:10.814Z,24.38
2024-01-24T04:34:11.184Z,24.35
2024-01-24T04:35:10.810Z,24.36
2024-01-24T04:36:10.819Z,24.38
2024-01-24T04:37:10.732Z,24.39
2024-01-24T04:38:10.757Z,24.38
2024-01-24T04:39:10.768Z,24.36
2024-01-24T04:40:10.801Z,24.41
2024-01-24T04:41:10.792Z,24.36
2024-01-24T04:42:16.172Z,24.38
2024-01-24T04:43:11.821Z,24.39
2024-01-24T04:44:10.773Z,24.39
2024-01-24T04:45:11.086Z,24.39
2024-01-24T04:46:11.118Z,24.36
2024-01-24T04:47:11.194Z,24.36
2024-01-24T04:48:11.139Z,24.35
2024-01-24T04:49:22.965Z,24.36
2024-01-24T04:50:11.927Z,24.36
2024-01-24T04:51:10.791Z,24.39
2024-01-24T04:52:10.790Z,24.38
2024-01-24T04:53:10.829Z,24.38
2024-01-24T04:54:10.816Z,24.35
2024-01-24T04:55:10.821Z,24.35
2024-01-24T04:56:10.808Z,24.35
2024-01-24T04:57:10.811Z,24.34
2024-01-24T04:58:10.816Z,24.31
2024-01-24T04:59:10.793Z,24.34
2024-01-24T05:00:10.799Z,24.35
2024-01-24T05:01:10.918Z,24.32
2024-01-24T05:02:10.824Z,24.31
2024-01-24T05:03:10.894Z,24.32
2024-01-24T05:04:10.964Z,24.34
2024-01-24T05:05:10.878Z,24.34
2024-01-24T05:06:11.733Z,24.32
2024-01-24T05:07:10.892Z,24.31
2024-01-24T05:08:11.140Z,24.32
2024-01-24T05:09:11.150Z,24.31
2024-01-24T05:10:10.844Z,24.30
2024-01-24T05:11:10.808Z,24.30
2024-01-24T05:12:10.843Z,24.32
2024-01-24T05:13:10.848Z,24.30
2024-01-24T05:14:10.846Z,24.30
2024-01-24T05:15:10.850Z,24.25
2024-01-24T05:16:10.871Z,24.28
2024-01-24T05:17:10.929Z,24.28
2024-01-24T05:18:11.105Z,24.28
2024-01-24T05:19:11.020Z,24.24
2024-01-24T05:20:10.970Z,24.28
2024-01-24T05:21:11.028Z,24.30
2024-01-24T05:22:11.023Z,24.25
2024-01-24T05:23:11.088Z,24.27
2024-01-24T05:24:11.119Z,24.27
2024-01-24T05:25:11.134Z,24.25
2024-01-24T05:26:11.516Z,24.25
2024-01-24T05:27:11.241Z,24.25
2024-01-24T05:28:11.291Z,24.27
2024-01-24T05:29:11.250Z,24.24
2024-01-24T05:30:16.922Z,24.23
2024-01-24T05:31:12.326Z,24.23
2024-01-24T05:32:11.274Z,24.24
2024-01-24T05:33:11.309Z,24.24
2024-01-24T05:34:11.373Z,24.20
2024-01-24T05:35:11.284Z,24.24
2024-01-24T05:36:11.273Z,24.23
2024-01-24T05:37:11.297Z,24.23
2024-01-24T05:38:11.319Z,24.24
2024-01-24T05:39:11.307Z,24.23
2024-01-24T05:40:11.298Z,24.23
2024-01-24T05:41:11.305Z,24.24
2024-01-24T05:42:11.636Z,24.24
2024-01-24T05:43:11.325Z,24.23
2024-01-24T05:44:11.306Z,24.21
2024-01-24T05:45:11.303Z,24.21
2024-01-24T05:46:11.296Z,24.21
2024-01-24T05:47:11.326Z,24.21
2024-01-24T05:48:11.404Z,24.24
2024-01-24T05:49:11.611Z,24.24
2024-01-24T05:50:11.387Z,24.23
2024-01-24T05:51:11.459Z,24.24
2024-01-24T05:52:11.451Z,24.25
2024-01-24T05:53:11.520Z,24.23
2024-01-24T05:54:11.886Z,24.24
2024-01-24T05:55:11.555Z,24.25
2024-01-24T05:56:11.577Z,24.24
2024-01-24T05:57:11.636Z,24.25
2024-01-24T05:58:11.651Z,24.23
2024-01-24T05:59:15.224Z,24.24
2024-01-24T06:00:11.886Z,24.24
2024-01-24T06:02:40.949Z,24.24
2024-01-24T06:03:18.043Z,24.24
2024-01-24T06:04:18.019Z,24.24
2024-01-24T06:05:18.045Z,24.25
2024-01-24T06:06:18.102Z,24.23
2024-01-24T06:07:18.045Z,24.21
2024-01-24T06:08:18.003Z,24.23
2024-01-24T06:09:17.980Z,24.25
2024-01-24T06:10:17.963Z,24.23
2024-01-24T06:11:17.969Z,24.23
2024-01-24T06:12:17.978Z,24.21
2024-01-24T06:13:18.000Z,24.18
2024-01-24T06:14:18.077Z,24.21
2024-01-24T06:15:18.142Z,24.20
2024-01-24T06:16:18.111Z,24.18
2024-01-24T06:17:18.195Z,24.20
2024-01-24T06:18:18.292Z,24.18
2024-01-24T06:19:18.412Z,24.20
2024-01-24T06:20:18.321Z,24.20
2024-01-24T06:21:18.395Z,24.18
2024-01-24T06:22:18.319Z,24.18
2024-01-24T06:23:18.391Z,24.20
2024-01-24T06:24:19.488Z,24.18
2024-01-24T06:25:18.438Z,24.18
2024-01-24T06:26:18.452Z,24.20
2024-01-24T06:27:18.512Z,24.17
2024-01-24T06:28:18.649Z,24.18
2024-01-24T06:29:18.622Z,24.17
2024-01-24T06:31:18.782Z,23.73
2024-01-24T06:32:18.682Z,23.74
2024-01-24T06:33:19.070Z,23.65
2024-01-24T06:34:18.726Z,23.44
2024-01-24T06:35:18.783Z,23.56
2024-01-24T06:36:18.792Z,23.48
2024-01-24T06:37:18.708Z,23.55
2024-01-24T06:38:18.658Z,23.57
2024-01-24T06:39:18.712Z,23.57
2024-01-24T06:40:18.745Z,23.52
2024-01-24T06:41:18.803Z,23.41
2024-01-24T06:42:18.805Z,23.36
2024-01-24T06:43:18.777Z,23.29
2024-01-24T06:44:18.793Z,23.18
2024-01-24T06:45:19.015Z,23.09
2024-01-24T06:47:49.585Z,23.05
2024-01-24T06:48:25.279Z,23.01
2024-01-24T06:49:25.621Z,23.04
2024-01-24T06:50:25.182Z,23.08
2024-01-24T06:51:25.371Z,23.12
2024-01-24T06:52:25.306Z,23.22
2024-01-24T06:53:25.300Z,23.25
2024-01-24T06:54:25.298Z,23.29
2024-01-24T06:55:25.292Z,23.38
2024-01-24T06:56:25.340Z,23.44
2024-01-24T06:57:25.584Z,23.46
2024-01-24T06:58:25.332Z,23.52
2024-01-24T06:59:25.281Z,23.55
2024-01-24T07:00:25.466Z,23.57
2024-01-24T07:01:25.466Z,23.62
2024-01-24T07:02:25.351Z,23.66
2024-01-24T07:03:25.363Z,23.67
2024-01-24T07:04:25.389Z,23.72
2024-01-24T07:05:25.315Z,23.74
2024-01-24T07:06:25.468Z,23.77
2024-01-24T07:07:25.449Z,23.79
2024-01-24T07:08:25.356Z,23.83
2024-01-24T07:09:25.330Z,23.86
2024-01-24T07:10:28.003Z,23.87
2024-01-24T07:11:25.257Z,23.88
2024-01-24T07:12:25.666Z,23.90
2024-01-24T07:13:25.338Z,23.91
2024-01-24T07:14:25.194Z,23.94
2024-01-24T07:15:25.316Z,23.96
2024-01-24T07:16:25.723Z,23.96
2024-01-24T07:17:25.312Z,23.97
2024-01-24T07:18:25.593Z,23.97
2024-01-24T07:19:25.394Z,23.99
2024-01-24T07:20:25.306Z,23.96
2024-01-24T07:21:25.394Z,23.99
2024-01-24T07:22:25.440Z,23.96
2024-01-24T07:23:25.276Z,23.94
2024-01-24T07:24:25.268Z,23.96
2024-01-24T07:25:25.359Z,23.99
2024-01-24T07:26:25.240Z,24.00
2024-01-24T07:27:25.378Z,23.97
2024-01-24T07:28:25.409Z,23.97
2024-01-24T07:29:25.278Z,23.99
2024-01-24T07:30:25.527Z,23.96
2024-01-24T07:31:25.371Z,23.97
2024-01-24T07:32:25.336Z,23.94
2024-01-24T07:33:25.829Z,23.97
2024-01-24T07:34:25.553Z,23.96
2024-01-24T07:35:25.403Z,23.99
2024-01-24T07:36:25.419Z,23.93
2024-01-24T07:37:25.462Z,23.97
2024-01-24T07:38:25.720Z,24.00
2024-01-24T07:39:25.443Z,24.00
2024-01-24T07:40:25.405Z,24.01
2024-01-24T07:41:25.479Z,24.08
2024-01-24T07:42:25.561Z,24.04
2024-01-24T07:43:25.863Z,23.96
2024-01-24T07:44:25.271Z,23.83
2024-01-24T07:45:25.357Z,23.65
2024-01-24T07:46:25.328Z,23.52
2024-01-24T07:47:25.512Z,23.45
2024-01-24T07:48:25.525Z,23.45
2024-01-24T07:49:25.331Z,23.49
2024-01-24T07:50:25.276Z,23.50
2024-01-24T07:51:25.296Z,23.55
2024-01-24T07:52:32.484Z,23.63
2024-01-24T07:53:26.299Z,23.66
2024-01-24T07:54:25.335Z,23.72
2024-01-24T07:55:32.252Z,23.79
2024-01-24T07:56:27.309Z,23.86
2024-01-24T07:57:25.530Z,23.91
2024-01-24T07:58:25.621Z,23.99
2024-01-24T07:59:25.472Z,24.01
2024-01-24T08:00:25.579Z,24.08
2024-01-24T08:01:25.650Z,24.14
2024-01-24T08:02:25.750Z,24.20
2024-01-24T08:03:26.429Z,24.18
2024-01-24T08:04:25.770Z,24.21
2024-01-24T08:05:25.716Z,24.20
2024-01-24T08:06:25.759Z,24.20
2024-01-24T08:07:25.768Z,24.20
2024-01-24T08:08:26.462Z,24.20
2024-01-24T08:09:25.839Z,24.21
2024-01-24T08:10:25.837Z,24.18
2024-01-24T08:11:26.510Z,24.18
2024-01-24T08:12:26.044Z,24.17
2024-01-24T08:13:26.188Z,24.17
2024-01-24T08:14:26.173Z,24.15
2024-01-24T08:15:26.079Z,24.15
2024-01-24T08:16:26.082Z,24.17
2024-01-24T08:17:26.178Z,24.15
2024-01-24T08:18:26.291Z,24.18
2024-01-24T08:19:26.329Z,24.17
2024-01-24T08:20:26.263Z,24.18
2024-01-24T08:21:26.387Z,24.18
2024-01-24T08:22:26.365Z,24.18
2024-01-24T08:23:31.675Z,24.18
2024-01-24T08:24:27.425Z,24.18
2024-01-24T08:25:26.398Z,24.15
2024-01-24T08:26:26.404Z,24.18
2024-01-24T08:27:26.474Z,24.15
2024-01-24T08:28:26.451Z,24.14
2024-01-24T08:29:32.765Z,24.17
2024-01-24T08:30:27.467Z,24.17
2024-01-24T08:31:26.415Z,24.17
2024-01-24T08:32:26.433Z,24.13
2024-01-24T08:33:26.527Z,24.17
2024-01-24T08:34:26.593Z,24.14
2024-01-24T08:35:26.996Z,24.13
2024-01-24T08:36:26.400Z,24.14
2024-01-24T08:37:26.413Z,24.08
2024-01-24T08:38:26.405Z,23.99
2024-01-24T08:39:26.442Z,23.84
2024-01-24T08:40:26.404Z,23.69
2024-01-24T08:41:26.443Z,23.66
2024-01-24T08:42:26.468Z,23.66
2024-01-24T08:43:26.437Z,23.56
2024-01-24T08:44:26.452Z,23.60
2024-01-24T08:45:26.509Z,23.62
2024-01-24T08:46:26.466Z,23.60
2024-01-24T08:47:26.489Z,23.66
2024-01-24T08:48:26.694Z,23.67
2024-01-24T08:49:26.731Z,23.73
2024-01-24T08:50:26.665Z,23.76
2024-01-24T08:51:26.745Z,23.80
2024-01-24T08:52:26.801Z,23.84
2024-01-24T08:53:26.827Z,23.90
2024-01-24T08:54:26.903Z,23.96
2024-01-24T08:55:26.993Z,23.99
2024-01-24T08:56:26.981Z,24.03
2024-01-24T08:57:27.070Z,24.07
2024-01-24T08:58:27.025Z,24.10
2024-01-24T08:59:27.077Z,24.11
2024-01-24T09:00:27.130Z,24.14
2024-01-24T09:01:29.217Z,24.14
2024-01-24T09:02:27.159Z,24.14
2024-01-24T09:03:27.309Z,24.20
2024-01-24T09:04:27.221Z,24.20
2024-01-24T09:05:27.386Z,24.21
2024-01-24T09:06:27.224Z,24.21
2024-01-24T09:07:27.187Z,24.25
2024-01-24T09:08:27.156Z,24.21
2024-01-24T09:09:27.202Z,24.24
2024-01-24T09:10:27.300Z,24.25
2024-01-24T09:11:31.574Z,24.24
2024-01-24T09:12:28.163Z,24.28
2024-01-24T09:13:27.165Z,24.28
2024-01-24T09:14:27.178Z,24.31
2024-01-24T09:15:27.209Z,24.30
2024-01-24T09:16:27.197Z,24.27
2024-01-24T09:17:27.195Z,24.23
2024-01-24T09:18:27.354Z,24.18
2024-01-24T09:19:27.286Z,24.18
2024-01-24T09:20:27.305Z,24.15
2024-01-24T09:21:27.210Z,24.17
2024-01-24T09:22:27.180Z,24.17
2024-01-24T09:23:27.196Z,24.21
2024-01-24T09:24:27.593Z,24.21
2024-01-24T09:25:27.275Z,24.23
2024-01-24T09:26:27.255Z,24.24
2024-01-24T09:27:27.278Z,24.27
2024-01-24T09:28:27.275Z,24.27
2024-01-24T09:29:27.272Z,24.32
2024-01-24T09:30:27.401Z,24.32
2024-01-24T09:31:27.333Z,24.32
2024-01-24T09:32:27.341Z,24.36
2024-01-24T09:33:27.520Z,24.38
2024-01-24T09:34:27.795Z,24.35
2024-01-24T09:35:27.480Z,24.42
2024-01-24T09:36:27.353Z,24.39
2024-01-24T09:37:28.046Z,24.25
2024-01-24T09:38:27.410Z,24.30
2024-01-24T09:39:27.662Z,24.21
2024-01-24T09:40:27.668Z,24.15
2024-01-24T09:41:27.656Z,24.14
2024-01-24T09:42:27.723Z,24.15
2024-01-24T09:43:28.091Z,24.15
2024-01-24T09:44:28.093Z,24.20
2024-01-24T09:45:27.847Z,24.21
2024-01-24T09:46:27.816Z,24.23
2024-01-24T09:47:27.863Z,24.25
2024-01-24T09:48:27.934Z,24.27
2024-01-24T09:49:27.953Z,24.03
2024-01-24T09:50:28.069Z,23.99
2024-01-24T09:51:28.065Z,23.94
2024-01-24T09:52:28.117Z,23.87
2024-01-24T09:53:28.195Z,23.88
2024-01-24T09:54:28.237Z,23.83
2024-01-24T09:55:28.297Z,23.74
2024-01-24T09:56:28.282Z,23.76
2024-01-24T09:57:28.355Z,23.80
2024-01-24T09:58:28.375Z,23.83
2024-01-24T09:59:28.431Z,23.84
2024-01-24T10:00:28.529Z,23.87
2024-01-24T10:01:28.600Z,23.91
2024-01-24T10:02:28.630Z,23.97
2024-01-24T10:03:28.702Z,24.03
2024-01-24T10:04:28.920Z,24.05
2024-01-24T10:05:28.772Z,24.10
2024-01-24T10:06:28.806Z,24.14
2024-01-24T10:07:28.827Z,24.20
2024-01-24T10:08:28.824Z,24.21
2024-01-24T10:09:28.892Z,24.28
2024-01-24T10:10:28.867Z,24.30
2024-01-24T10:11:28.901Z,24.32
2024-01-24T10:12:28.907Z,24.35
2024-01-24T10:13:28.914Z,24.41
2024-01-24T10:14:28.902Z,24.39
2024-01-24T10:15:28.940Z,24.45
2024-01-24T10:16:28.963Z,24.47
2024-01-24T10:17:28.995Z,24.48
2024-01-24T10:18:29.075Z,24.50
2024-01-24T10:19:29.082Z,24.50
2024-01-24T10:20:28.984Z,24.52
2024-01-24T10:21:28.971Z,24.54
2024-01-24T10:22:29.039Z,24.54
2024-01-24T10:23:28.960Z,24.55
2024-01-24T10:24:29.074Z,24.55
2024-01-24T10:25:29.008Z,24.54
2024-01-24T10:26:28.937Z,24.54
2024-01-24T10:27:30.310Z,24.55
2024-01-24T10:28:29.162Z,24.55
2024-01-24T10:29:29.106Z,24.55
2024-01-24T10:30:29.130Z,24.56
2024-01-24T10:31:29.117Z,24.58
2024-01-24T10:32:29.156Z,24.55
2024-01-24T10:33:29.284Z,24.55
2024-01-24T10:34:29.368Z,24.56
2024-01-24T10:35:29.170Z,24.58
2024-01-24T10:36:32.751Z,24.59
2024-01-24T10:37:30.250Z,24.59
2024-01-24T10:38:29.177Z,24.61
2024-01-24T10:39:29.179Z,24.63
2024-01-24T10:40:29.186Z,24.65
2024-01-24T10:41:29.464Z,24.66
2024-01-24T10:42:29.236Z,24.66
2024-01-24T10:43:29.156Z,24.66
2024-01-24T10:44:29.145Z,24.62
2024-01-24T10:45:29.593Z,24.54
2024-01-24T10:46:29.326Z,24.50
2024-01-24T10:47:31.602Z,24.47
2024-01-24T10:48:29.311Z,24.48
2024-01-24T10:49:29.206Z,24.48
2024-01-24T10:50:30.090Z,24.51
2024-01-24T10:51:29.223Z,24.54
2024-01-24T10:52:29.183Z,24.51
2024-01-24T10:53:29.183Z,24.54
2024-01-24T10:54:29.212Z,24.56
2024-01-24T10:55:29.608Z,24.55
2024-01-24T10:56:29.168Z,24.59
2024-01-24T10:57:29.186Z,24.61
2024-01-24T10:58:29.161Z,24.62
2024-01-24T10:59:29.177Z,24.63
2024-01-24T11:00:29.596Z,24.63
2024-01-24T11:01:29.310Z,24.66
2024-01-24T11:02:29.309Z,24.69
2024-01-24T11:03:29.280Z,24.69
2024-01-24T11:04:29.212Z,24.69
2024-01-24T11:05:29.678Z,24.68
2024-01-24T11:06:29.236Z,24.69
2024-01-24T11:07:29.179Z,24.69
2024-01-24T11:08:39.479Z,24.71
2024-01-24T11:09:30.282Z,24.73
2024-01-24T11:10:29.201Z,24.75
2024-01-24T11:11:29.217Z,24.76
2024-01-24T11:12:29.257Z,24.78
2024-01-24T11:13:30.100Z,24.76
2024-01-24T11:14:29.218Z,24.79
2024-01-24T11:15:29.211Z,24.81
2024-01-24T11:16:29.217Z,24.78
2024-01-24T11:17:29.274Z,24.75
2024-01-24T11:18:29.360Z,24.76
2024-01-24T11:19:29.491Z,24.73
2024-01-24T11:20:29.429Z,24.73
2024-01-24T11:21:29.860Z,24.78
2024-01-24T11:22:30.909Z,24.76
2024-01-24T11:23:29.635Z,24.78
2024-01-24T11:24:29.741Z,24.78
2024-01-24T11:25:30.068Z,24.83
2024-01-24T11:26:29.881Z,24.82
2024-01-24T11:27:29.938Z,24.82
2024-01-24T11:28:30.061Z,24.82
2024-01-24T11:29:30.094Z,24.83
2024-01-24T11:30:30.622Z,24.83
2024-01-24T11:31:30.289Z,24.82
2024-01-24T11:32:30.436Z,24.68
2024-01-24T11:33:30.370Z,24.61
2024-01-24T11:34:30.337Z,24.56
2024-01-24T11:35:30.593Z,24.56
2024-01-24T11:36:30.346Z,24.54
2024-01-24T11:37:30.321Z,24.41
2024-01-24T11:38:31.544Z,24.35
2024-01-24T11:39:30.451Z,24.23
2024-01-24T11:40:30.662Z,24.14
2024-01-24T11:41:30.549Z,24.11
2024-01-24T11:42:30.699Z,24.11
2024-01-24T11:43:32.841Z,24.11
2024-01-24T11:44:30.710Z,24.14
2024-01-24T11:45:31.209Z,24.15
2024-01-24T11:46:30.732Z,24.20
2024-01-24T11:47:30.757Z,24.21
2024-01-24T11:48:30.894Z,24.27
2024-01-24T11:49:31.087Z,24.31
2024-01-24T11:50:30.726Z,24.32
2024-01-24T11:51:30.771Z,24.36
2024-01-24T11:52:30.739Z,24.38
2024-01-24T11:53:30.735Z,24.44
2024-01-24T11:54:30.773Z,24.45
2024-01-24T11:55:30.732Z,24.48
2024-01-24T11:56:30.747Z,24.51
2024-01-24T11:57:30.791Z,24.54
2024-01-24T11:58:30.775Z,24.54
2024-01-24T11:59:30.716Z,24.55
2024-01-24T12:00:30.779Z,24.58
2024-01-24T12:01:30.896Z,24.59
2024-01-24T12:02:30.721Z,24.62
2024-01-24T12:03:30.842Z,24.63
2024-01-24T12:04:30.806Z,24.61
2024-01-24T12:05:30.764Z,24.65
2024-01-24T12:06:30.796Z,24.63
2024-01-24T12:07:30.788Z,24.65
2024-01-24T12:08:30.747Z,24.65
2024-01-24T12:09:30.834Z,24.65
2024-01-24T12:10:30.823Z,24.65
2024-01-24T12:11:30.873Z,24.71
2024-01-24T12:12:30.937Z,24.66
2024-01-24T12:13:31.096Z,24.71
2024-01-24T12:14:30.920Z,24.69
2024-01-24T12:15:31.026Z,24.69
2024-01-24T12:16:31.024Z,24.68
2024-01-24T12:17:31.097Z,24.68
2024-01-24T12:18:31.157Z,24.68
2024-01-24T12:19:31.246Z,24.69
2024-01-24T12:20:31.174Z,24.68
2024-01-24T12:21:31.236Z,24.68
2024-01-24T12:22:31.217Z,24.68
2024-01-24T12:23:31.214Z,24.69
2024-01-24T12:24:31.292Z,24.68
2024-01-24T12:25:31.278Z,24.65
2024-01-24T12:26:31.630Z,24.59
2024-01-24T12:27:31.304Z,24.65
2024-01-24T12:28:31.632Z,24.68
2024-01-24T12:29:31.460Z,24.71
2024-01-24T12:30:31.526Z,24.75
2024-01-24T12:31:32.405Z,24.65
2024-01-24T12:32:31.674Z,24.69
2024-01-24T12:33:31.750Z,24.68
2024-01-24T12:34:31.871Z,24.65
2024-01-24T12:35:31.663Z,24.63
2024-01-24T12:36:31.693Z,24.62
2024-01-24T12:37:31.705Z,24.58
2024-01-24T12:38:31.722Z,24.58
2024-01-24T12:39:31.745Z,24.56
2024-01-24T12:40:31.723Z,24.56
2024-01-24T12:41:31.763Z,24.55
2024-01-24T12:42:31.730Z,24.55
2024-01-24T12:43:31.756Z,24.52
2024-01-24T12:44:31.822Z,24.54
2024-01-24T12:45:31.785Z,24.48
2024-01-24T12:46:32.174Z,24.51
2024-01-24T12:47:31.857Z,24.47
2024-01-24T12:48:31.886Z,24.50
2024-01-24T12:49:31.914Z,24.45
2024-01-24T12:50:31.952Z,24.50
2024-01-24T12:51:31.917Z,24.51
2024-01-24T12:52:31.876Z,24.50
2024-01-24T12:53:31.878Z,24.54
2024-01-24T12:54:31.889Z,24.55
2024-01-24T12:55:31.899Z,24.56
2024-01-24T12:56:31.923Z,24.59